Time,TemperatureF,DewpointF,PressureIn,WindDirection,WindDirectionDegrees,WindSpeedMPH,WindSpeedGustMPH,Humidity,HourlyPrecipIn,Conditions,Clouds,dailyrainin,SoftwareType,DateUTC
2013-09-20 00:08:00,75.2,-31.7,29.66,ENE,67,4.2,-999.0,1,-99.99,,,0.00,Acu-Link.com,2013-09-20 05:08:00,
2013-09-20 00:23:00,75.2,-31.7,29.67,ESE,112,3.2,-999.0,1,-99.99,,,0.00,Acu-Link.com,2013-09-20 05:23:00,
2013-09-20 00:38:00,75.2,-31.7,29.67,ENE,67,1.7,-999.0,1,-99.99,,,0.00,Acu-Link.com,2013-09-20 05:38:00,
2013-09-20 00:54:00,75.4,-31.6,29.67,East,90,1.1,-999.0,1,-99.99,,,0.00,Acu-Link.com,2013-09-20 05:54:00,
2013-09-20 01:09:00,75.6,-31.5,29.66,SE,135,2.2,-999.0,1,-99.99,,,0.00,Acu-Link.com,2013-09-20 06:09:00,
2013-09-20 01:24:00,75.7,-31.4,29.65,South,180,2.2,-999.0,1,-99.99,,,0.00,Acu-Link.com,2013-09-20 06:24:00,
2013-09-20 01:40:00,75.7,-31.4,29.64,East,90,4.2,-999.0,1,-99.99,,,0.00,Acu-Link.com,2013-09-20 06:40:00,
2013-09-20 01:55:00,75.9,-31.3,29.65,ESE,112,3.7,-999.0,1,-99.99,,,0.00,Acu-Link.com,2013-09-20 06:55:00,
2013-09-20 02:10:00,76.1,-31.2,29.65,SE,135,3.2,-999.0,1,-99.99,,,0.00,Acu-Link.com,2013-09-20 07:10:00,
2013-09-20 02:26:00,76.3,-31.0,29.65,ESE,112,5.3,-999.0,1,-99.99,,,0.00,Acu-Link.com,2013-09-20 07:26:00,
2013-09-20 02:41:00,76.3,-31.0,29.64,ESE,112,2.2,-999.0,1,-99.99,,,0.00,Acu-Link.com,2013-09-20 07:41:00,
2013-09-20 02:56:00,76.3,-31.0,29.64,East,90,1.7,-999.0,1,-99.99,,,0.00,Acu-Link.com,2013-09-20 07:56:00,
2013-09-20 03:13:00,76.3,-31.0,29.64,East,90,2.2,-999.0,1,-99.99,,,0.00,Acu-Link.com,2013-09-20 08:13:00,
2013-09-20 03:28:00,76.3,-31.0,29.63,ESE,112,1.7,-999.0,1,-99.99,,,0.00,Acu-Link.com,2013-09-20 08:28:00,
2013-09-20 03:43:00,76.3,-31.0,29.64,ESE,112,3.2,-999.0,1,-99.99,,,0.00,Acu-Link.com,2013-09-20 08:43:00,
2013-09-20 03:59:00,76.3,-31.0,29.63,ESE,112,3.2,-999.0,1,-99.99,,,0.00,Acu-Link.com,2013-09-20 08:59:00,
2013-09-20 04:14:00,76.3,-31.0,29.63,East,90,1.7,-999.0,1,-99.99,,,0.00,Acu-Link.com,2013-09-20 09:14:00,
2013-09-20 04:29:00,76.5,-30.9,29.62,SSE,157,2.7,-999.0,1,-99.99,,,0.00,Acu-Link.com,2013-09-20 09:29:00,
2013-09-20 04:44:00,76.5,-30.9,29.63,East,90,0.0,-999.0,1,-99.99,,,0.00,Acu-Link.com,2013-09-20 09:44:00,
2013-09-20 04:59:00,76.3,-31.0,29.62,ESE,112,2.7,-999.0,1,-99.99,,,0.00,Acu-Link.com,2013-09-20 09:59:00,
2013-09-20 05:14:00,76.3,-31.0,29.62,South,180,1.1,-999.0,1,-99.99,,,0.00,Acu-Link.com,2013-09-20 10:14:00,
2013-09-20 05:29:00,76.5,-30.9,29.62,SSW,202,1.1,-999.0,1,-99.99,,,0.00,Acu-Link.com,2013-09-20 10:29:00,
2013-09-20 05:45:00,76.5,-30.9,29.63,SSE,157,1.1,-999.0,1,-99.99,,,0.00,Acu-Link.com,2013-09-20 10:45:00,
2013-09-20 06:00:00,76.8,-30.7,29.61,East,90,4.2,-999.0,1,-99.99,,,0.00,Acu-Link.com,2013-09-20 11:00:00,
2013-09-20 06:15:00,76.8,-30.7,29.60,East,90,2.7,-999.0,1,-99.99,,,0.00,Acu-Link.com,2013-09-20 11:15:00,
2013-09-20 06:30:00,76.8,73.6,29.60,SSW,202,2.2,-999.0,90,-99.99,,,0.00,Acu-Link.com,2013-09-20 11:30:00,
2013-09-20 06:45:00,77.0,76.4,29.60,East,90,4.7,-999.0,98,-99.99,,,0.00,Acu-Link.com,2013-09-20 11:45:00,
2013-09-20 07:01:00,77.2,76.6,29.60,SSE,157,2.2,-999.0,98,-99.99,,,0.01,Acu-Link.com,2013-09-20 12:01:00,
2013-09-20 07:16:00,77.2,76.6,29.61,ESE,112,1.7,-999.0,98,-99.99,,,0.01,Acu-Link.com,2013-09-20 12:16:00,
2013-09-20 07:31:00,77.2,76.6,29.60,South,180,1.7,-999.0,98,-99.99,,,0.01,Acu-Link.com,2013-09-20 12:31:00,
2013-09-20 07:46:00,77.4,76.8,29.62,SSE,157,1.7,-999.0,98,-99.99,,,0.01,Acu-Link.com,2013-09-20 12:46:00,
2013-09-20 08:02:00,77.7,64.1,29.62,SSE,157,2.2,-999.0,63,-99.99,,,0.01,Acu-Link.com,2013-09-20 13:02:00,
2013-09-20 08:17:00,78.4,-29.8,29.61,SE,135,2.2,-999.0,1,-99.99,,,0.01,Acu-Link.com,2013-09-20 13:17:00,
2013-09-20 08:32:00,79.2,-29.3,29.61,ESE,112,1.7,-999.0,1,-99.99,,,0.02,Acu-Link.com,2013-09-20 13:32:00,
2013-09-20 08:47:00,79.3,-29.3,29.61,East,90,2.7,-999.0,1,-99.99,,,0.02,Acu-Link.com,2013-09-20 13:47:00,
2013-09-20 09:03:00,79.7,-29.0,29.61,ESE,112,2.7,-999.0,1,-99.99,,,0.02,Acu-Link.com,2013-09-20 14:03:00,
2013-09-20 09:18:00,80.4,-28.6,29.62,ESE,112,3.7,-999.0,1,-99.99,,,0.02,Acu-Link.com,2013-09-20 14:18:00,
2013-09-20 09:33:00,80.4,78.2,29.61,ESE,112,3.2,-999.0,93,-99.99,,,0.02,Acu-Link.com,2013-09-20 14:33:00,
2013-09-20 09:48:00,80.6,-28.5,29.62,SSE,157,3.2,-999.0,1,-99.99,,,0.02,Acu-Link.com,2013-09-20 14:48:00,
2013-09-20 10:03:00,80.8,-28.4,29.62,SSE,157,1.1,-999.0,1,-99.99,,,0.02,Acu-Link.com,2013-09-20 15:03:00,
2013-09-20 10:19:00,80.8,-28.4,29.62,SSE,157,2.7,-999.0,1,-99.99,,,0.02,Acu-Link.com,2013-09-20 15:19:00,
2013-09-20 10:34:00,81.0,-28.2,29.61,South,180,3.7,-999.0,1,-99.99,,,0.02,Acu-Link.com,2013-09-20 15:34:00,
2013-09-20 10:49:00,81.5,-27.9,29.61,ESE,112,3.7,-999.0,1,-99.99,,,0.02,Acu-Link.com,2013-09-20 15:49:00,
2013-09-20 11:04:00,81.7,-27.8,29.60,ESE,112,4.2,-999.0,1,-99.99,,,0.02,Acu-Link.com,2013-09-20 16:04:00,
2013-09-20 11:19:00,82.2,-27.5,29.60,ESE,112,3.7,-999.0,1,-99.99,,,0.02,Acu-Link.com,2013-09-20 16:19:00,
2013-09-20 11:35:00,82.9,-27.1,29.58,ESE,112,3.7,-999.0,1,-99.99,,,0.02,Acu-Link.com,2013-09-20 16:35:00,
2013-09-20 11:50:00,84.6,-26.1,29.59,SSE,157,3.7,-999.0,1,-99.99,,,0.02,Acu-Link.com,2013-09-20 16:50:00,
2013-09-20 12:05:00,85.5,-25.6,29.57,SW,225,3.2,-999.0,1,-99.99,,,0.02,Acu-Link.com,2013-09-20 17:05:00,
2013-09-20 12:20:00,86.4,-25.0,29.57,ESE,112,5.8,-999.0,1,-99.99,,,0.03,Acu-Link.com,2013-09-20 17:20:00,
2013-09-20 12:36:00,87.4,-24.5,29.57,South,180,3.2,-999.0,1,-99.99,,,0.03,Acu-Link.com,2013-09-20 17:36:00,
2013-09-20 12:51:00,89.2,-23.4,29.57,SE,135,4.2,-999.0,1,-99.99,,,0.03,Acu-Link.com,2013-09-20 17:51:00,
2013-09-20 13:06:00,89.6,-23.2,29.55,South,180,4.2,-999.0,1,-99.99,,,0.03,Acu-Link.com,2013-09-20 18:06:00,
2013-09-20 13:21:00,90.0,-22.9,29.54,ESE,112,5.8,-999.0,1,-99.99,,,0.03,Acu-Link.com,2013-09-20 18:21:00,
2013-09-20 13:36:00,86.9,-24.8,29.54,SW,225,10.4,-999.0,1,-99.99,,,0.06,Acu-Link.com,2013-09-20 18:36:00,
2013-09-20 13:51:00,86.7,-24.9,29.53,South,180,2.7,-999.0,1,-99.99,,,0.06,Acu-Link.com,2013-09-20 18:51:00,
2013-09-20 14:06:00,78.1,-30.0,29.58,NW,315,10.4,-999.0,1,-99.99,,,0.06,Acu-Link.com,2013-09-20 19:06:00,
2013-09-20 14:21:00,75.2,64.7,29.53,SSW,202,4.7,-999.0,70,-99.99,,,0.69,Acu-Link.com,2013-09-20 19:21:00,
2013-09-20 14:36:00,76.3,-31.0,29.53,SSE,157,4.2,-999.0,1,-99.99,,,0.78,Acu-Link.com,2013-09-20 19:36:00,
2013-09-20 14:51:00,76.3,-31.0,29.52,SW,225,4.7,-999.0,1,-99.99,,,0.89,Acu-Link.com,2013-09-20 19:51:00,
2013-09-20 15:06:00,76.3,75.7,29.52,WSW,247,10.9,-999.0,98,-99.99,,,0.98,Acu-Link.com,2013-09-20 20:06:00,
2013-09-20 15:21:00,76.3,-31.0,29.51,SW,225,0.0,-999.0,1,-99.99,,,1.92,Acu-Link.com,2013-09-20 20:21:00,
2013-09-20 15:37:00,76.5,-30.9,29.51,SE,135,1.7,-999.0,1,-99.99,,,1.96,Acu-Link.com,2013-09-20 20:37:00,
2013-09-20 15:52:00,76.5,-30.9,29.52,East,90,0.0,-999.0,1,-99.99,,,1.99,Acu-Link.com,2013-09-20 20:52:00,
2013-09-20 16:07:00,76.8,-30.7,29.50,NE,45,1.7,-999.0,1,-99.99,,,2.05,Acu-Link.com,2013-09-20 21:07:00,
2013-09-20 16:23:00,77.2,-30.5,29.50,West,270,0.0,-999.0,1,-99.99,,,2.09,Acu-Link.com,2013-09-20 21:23:00,
2013-09-20 16:38:00,77.5,-30.3,29.49,NE,45,2.2,-999.0,1,-99.99,,,2.11,Acu-Link.com,2013-09-20 21:38:00,
2013-09-20 16:53:00,77.9,-30.1,29.49,NE,45,2.2,-999.0,1,-99.99,,,2.12,Acu-Link.com,2013-09-20 21:53:00,
2013-09-20 17:09:00,78.6,-29.7,29.49,SSW,202,0.0,-999.0,1,-99.99,,,2.12,Acu-Link.com,2013-09-20 22:09:00,
2013-09-20 17:24:00,78.8,-29.6,29.50,South,180,0.0,-999.0,1,-99.99,,,2.12,Acu-Link.com,2013-09-20 22:24:00,
2013-09-20 17:39:00,79.0,-29.4,29.49,ESE,112,0.0,-999.0,1,-99.99,,,2.12,Acu-Link.com,2013-09-20 22:39:00,
2013-09-20 17:54:00,78.8,-29.6,29.48,East,90,1.7,-999.0,1,-99.99,,,2.12,Acu-Link.com,2013-09-20 22:54:00,
2013-09-20 18:09:00,78.8,-29.6,29.47,NE,45,1.1,-999.0,1,-99.99,,,2.12,Acu-Link.com,2013-09-20 23:09:00,
2013-09-20 18:25:00,78.8,-29.6,29.47,ESE,112,0.0,-999.0,1,-99.99,,,2.12,Acu-Link.com,2013-09-20 23:25:00,
2013-09-20 18:40:00,78.8,-29.6,29.49,WSW,247,0.0,-999.0,1,-99.99,,,2.12,Acu-Link.com,2013-09-20 23:40:00,
2013-09-20 18:55:00,78.8,-29.6,29.49,East,90,2.2,-999.0,1,-99.99,,,2.12,Acu-Link.com,2013-09-20 23:55:00,
2013-09-20 19:10:00,79.0,-29.4,29.49,SE,135,3.2,-999.0,1,-99.99,,,2.14,Acu-Link.com,2013-09-21 00:10:00,
2013-09-20 19:26:00,79.3,-29.3,29.49,South,180,2.7,-999.0,1,-99.99,,,2.16,Acu-Link.com,2013-09-21 00:26:00,
2013-09-20 19:41:00,79.0,-29.4,29.49,East,90,3.2,-999.0,1,-99.99,,,2.16,Acu-Link.com,2013-09-21 00:41:00,
2013-09-20 19:56:00,78.8,-29.6,29.49,East,90,0.0,-999.0,1,-99.99,,,2.17,Acu-Link.com,2013-09-21 00:56:00,
2013-09-20 20:12:00,78.6,-29.7,29.49,ESE,112,0.0,-999.0,1,-99.99,,,2.17,Acu-Link.com,2013-09-21 01:12:00,
2013-09-20 20:27:00,78.6,-29.7,29.50,ESE,112,0.0,-999.0,1,-99.99,,,2.17,Acu-Link.com,2013-09-21 01:27:00,
2013-09-20 20:42:00,78.6,-29.7,29.49,East,90,0.0,-999.0,1,-99.99,,,2.17,Acu-Link.com,2013-09-21 01:42:00,
2013-09-20 20:57:00,78.8,-29.6,29.49,SW,225,1.7,-999.0,1,-99.99,,,2.18,Acu-Link.com,2013-09-21 01:57:00,
2013-09-20 21:12:00,78.6,-29.7,29.49,East,90,0.0,-999.0,1,-99.99,,,2.18,Acu-Link.com,2013-09-21 02:12:00,
2013-09-20 21:28:00,78.8,-29.6,29.48,ESE,112,0.0,-999.0,1,-99.99,,,2.18,Acu-Link.com,2013-09-21 02:28:00,
2013-09-20 21:43:00,78.8,-29.6,29.48,ESE,112,0.0,-999.0,1,-99.99,,,2.18,Acu-Link.com,2013-09-21 02:43:00,
2013-09-20 21:58:00,79.3,-29.3,29.48,SW,225,0.0,-999.0,1,-99.99,,,2.18,Acu-Link.com,2013-09-21 02:58:00,
2013-09-20 22:13:00,79.5,-29.1,29.49,South,180,1.1,-999.0,1,-99.99,,,2.18,Acu-Link.com,2013-09-21 03:13:00,
2013-09-20 22:29:00,79.9,-28.9,29.49,SSE,157,0.0,-999.0,1,-99.99,,,2.18,Acu-Link.com,2013-09-21 03:29:00,
2013-09-20 22:44:00,79.9,-28.9,29.48,SW,225,0.0,-999.0,1,-99.99,,,2.18,Acu-Link.com,2013-09-21 03:44:00,
2013-09-20 22:59:00,79.9,-28.9,29.48,ESE,112,2.2,-999.0,1,-99.99,,,2.18,Acu-Link.com,2013-09-21 03:59:00,
2013-09-20 23:15:00,80.1,-28.8,29.48,East,90,0.0,-999.0,1,-99.99,,,2.19,Acu-Link.com,2013-09-21 04:15:00,
2013-09-20 23:30:00,80.1,-28.8,29.49,WSW,247,2.7,-999.0,1,-99.99,,,2.19,Acu-Link.com,2013-09-21 04:30:00,
2013-09-20 23:45:00,80.1,-28.8,29.48,South,180,2.2,-999.0,1,-99.99,,,2.20,Acu-Link.com,2013-09-21 04:45:00,